Time;durP1;ratioP1;P1;durP2;ratioP2;P2;SDS_P1;SDS_P2;PMS_P1;PMS_P2;Temp;Humidity;BMP_temperature;BMP_pressure;BME280_temperature;BME280_humidity;BME280_pressure;Samples;Min_cycle;Max_cycle;Signal;HPM_P1;HPM_P2
2022/03/09 00:02:13;;;;;;;1999.90;999.90;;;4.20;59.40;;;;;;5112066;28;20741;-73
2022/03/09 00:04:39;;;;;;;1999.90;999.90;;;4.20;60.10;;;;;;5111747;28;20188;-74
2022/03/09 00:07:04;;;;;;;1999.90;999.90;;;4.20;60.30;;;;;;5112074;28;20162;-74
2022/03/09 00:09:30;;;;;;;1999.90;999.90;;;4.20;60.00;;;;;;5112047;28;20592;-73
2022/03/09 00:11:55;;;;;;;1999.90;999.90;;;4.20;60.40;;;;;;5111995;28;20162;-74
2022/03/09 00:14:21;;;;;;;1999.90;999.90;;;4.20;61.10;;;;;;5110682;28;20558;-75
2022/03/09 00:16:47;;;;;;;1999.90;999.90;;;4.20;61.80;;;;;;5111852;28;20204;-74
2022/03/09 00:19:12;;;;;;;1999.90;999.90;;;4.20;61.70;;;;;;5112062;28;20173;-73
2022/03/09 00:21:38;;;;;;;1999.90;999.90;;;4.10;63.30;;;;;;5112025;28;20218;-73
2022/03/09 00:24:04;;;;;;;1999.90;999.90;;;4.00;65.50;;;;;;5115078;28;20189;-73
2022/03/09 00:26:29;;;;;;;1999.90;999.90;;;3.80;67.90;;;;;;5115705;28;20177;-73
2022/03/09 00:28:55;;;;;;;1999.90;999.90;;;3.80;71.30;;;;;;5115671;28;20399;-73
2022/03/09 00:31:21;;;;;;;1999.90;999.90;;;3.70;73.10;;;;;;5115634;28;20199;-73
2022/03/09 00:33:47;;;;;;;1999.90;999.90;;;3.60;77.00;;;;;;5114229;28;20823;-73
2022/03/09 00:36:13;;;;;;;1999.90;999.90;;;3.50;80.40;;;;;;5115186;28;20192;-73
2022/03/09 00:38:38;;;;;;;1999.90;999.90;;;3.30;85.70;;;;;;5115546;28;20166;-73
2022/03/09 00:41:04;;;;;;;1999.90;999.90;;;3.30;90.30;;;;;;5115380;28;20399;-76
2022/03/09 00:43:30;;;;;;;1999.90;999.90;;;3.30;91.50;;;;;;5115308;28;20194;-74
2022/03/09 00:45:55;;;;;;;1999.90;999.90;;;3.30;92.60;;;;;;5115008;28;20189;-75
2022/03/09 00:48:21;;;;;;;1999.90;999.90;;;3.30;92.70;;;;;;5115341;28;20166;-75
2022/03/09 00:50:47;;;;;;;1999.90;999.90;;;3.30;93.40;;;;;;5115396;28;20223;-72
2022/03/09 00:53:13;;;;;;;1999.90;999.90;;;3.20;94.70;;;;;;5115250;28;20176;-73
2022/03/09 00:55:39;;;;;;;1999.90;999.90;;;3.30;95.40;;;;;;5114735;28;20186;-74
2022/03/09 00:58:06;;;;;;;1999.90;999.90;;;3.30;95.80;;;;;;5115061;28;20193;-73
2022/03/09 01:00:31;;;;;;;1999.90;999.90;;;3.30;97.10;;;;;;5115058;28;20219;-73
2022/03/09 01:02:57;;;;;;;1999.90;999.90;;;3.20;97.10;;;;;;5115039;28;20169;-73
2022/03/09 01:05:22;;;;;;;1999.90;999.90;;;3.20;97.80;;;;;;5114636;28;20185;-75
2022/03/09 01:07:48;;;;;;;1999.90;999.90;;;3.20;98.10;;;;;;5114938;28;20165;-75
2022/03/09 01:10:14;;;;;;;1999.90;999.90;;;3.30;99.50;;;;;;5114865;28;20162;-74
2022/03/09 01:12:40;;;;;;;1999.90;999.90;;;3.20;99.60;;;;;;5114883;27;20553;-75
2022/03/09 01:15:07;;;;;;;1999.90;999.90;;;3.10;99.90;;;;;;5113068;28;20186;-74
2022/03/09 01:17:33;;;;;;;1999.90;999.90;;;3.00;99.90;;;;;;5114653;28;20198;-75
2022/03/09 01:19:58;;;;;;;1999.90;999.90;;;3.00;99.90;;;;;;5114722;28;20623;-73
2022/03/09 01:22:24;;;;;;;1999.90;999.90;;;3.10;99.90;;;;;;5114661;28;20408;-73
2022/03/09 01:24:50;;;;;;;1999.90;999.90;;;3.00;99.90;;;;;;5114048;28;20201;-75
2022/03/09 01:27:15;;;;;;;1999.90;999.90;;;2.90;99.90;;;;;;5114504;28;20176;-75
2022/03/09 01:29:41;;;;;;;1999.90;999.90;;;2.80;99.90;;;;;;5114471;28;20166;-73
2022/03/09 01:32:07;;;;;;;1999.90;999.90;;;2.90;99.90;;;;;;5114427;28;20172;-74
2022/03/09 01:34:33;;;;;;;1999.90;999.90;;;2.80;99.90;;;;;;5113466;28;20213;-74
2022/03/09 01:36:58;;;;;;;1999.90;999.90;;;2.80;99.90;;;;;;5114259;28;20221;-73
2022/03/09 01:39:24;;;;;;;1999.90;999.90;;;2.70;99.90;;;;;;5114254;28;20534;-73
2022/03/09 01:41:50;;;;;;;1999.90;999.90;;;2.70;99.90;;;;;;5115750;28;20233;-76
2022/03/09 01:44:18;;;;;;;1999.90;999.90;;;2.60;99.90;;;;;;5116366;28;20192;-76
2022/03/09 01:46:46;;;;;;;1999.90;999.90;;;2.50;99.90;;;;;;5116700;28;20230;-73
2022/03/09 01:49:12;;;;;;;1999.90;999.90;;;2.60;99.90;;;;;;5114434;28;20634;-73
2022/03/09 01:51:41;;;;;;;1999.90;999.90;;;2.50;99.90;;;;;;5114144;28;20172;-73
2022/03/09 01:54:07;;;;;;;1999.90;999.90;;;2.50;99.90;;;;;;5113606;28;20931;-75
2022/03/09 01:56:33;;;;;;;1999.90;999.90;;;2.40;99.90;;;;;;5115258;28;20194;-76
2022/03/09 01:59:04;;;;;;;1999.90;999.90;;;2.40;99.90;;;;;;5117330;28;20443;-75
2022/03/09 02:01:30;;;;;;;1999.90;999.90;;;2.30;99.90;;;;;;5119119;28;20244;-74
2022/03/09 02:03:57;;;;;;;1999.90;999.90;;;2.40;99.90;;;;;;5112394;28;20235;-75
2022/03/09 02:06:23;;;;;;;1999.90;999.90;;;2.40;99.90;;;;;;5113620;28;20177;-75
2022/03/09 02:11:34;;;;;;;1999.90;999.90;;;2.60;99.90;;;;;;5114005;28;20395;-73
2022/03/09 02:14:00;;;;;;;1999.90;999.90;;;2.60;99.90;;;;;;5113306;28;20196;-75
2022/03/09 02:16:26;;;;;;;1999.90;999.90;;;2.50;99.90;;;;;;5113491;28;20247;-74
2022/03/09 02:18:52;;;;;;;1999.90;999.90;;;2.60;99.90;;;;;;5113515;28;20158;-74
2022/03/09 02:21:19;;;;;;;1999.90;999.90;;;2.60;99.90;;;;;;5113541;28;20191;-73
2022/03/09 02:23:46;;;;;;;1999.90;999.90;;;2.60;99.90;;;;;;5113226;28;20168;-73
2022/03/09 02:26:12;;;;;;;1999.90;999.90;;;2.50;99.90;;;;;;5113085;28;20215;-74
2022/03/09 02:28:39;;;;;;;1999.90;999.90;;;2.50;99.90;;;;;;5113341;28;20165;-74
2022/03/09 02:31:06;;;;;;;1999.90;999.90;;;2.50;99.90;;;;;;5113282;28;20187;-75
2022/03/09 02:33:32;;;;;;;1999.90;999.90;;;2.50;99.90;;;;;;5113125;28;20166;-74
2022/03/09 02:35:58;;;;;;;1999.90;999.90;;;2.50;99.90;;;;;;5113122;28;20187;-74
2022/03/09 02:38:23;;;;;;;1999.90;999.90;;;2.50;99.90;;;;;;5113241;28;20193;-72
2022/03/09 02:40:49;;;;;;;1999.90;999.90;;;2.40;99.90;;;;;;5113385;28;20244;-73
2022/03/09 02:43:14;;;;;;;1999.90;999.90;;;2.40;99.90;;;;;;5113063;28;20523;-73
2022/03/09 02:45:40;;;;;;;1999.90;999.90;;;2.50;99.90;;;;;;5111903;28;20221;-73
2022/03/09 02:48:06;;;;;;;1999.90;999.90;;;2.30;99.90;;;;;;5112791;28;20169;-74
2022/03/09 02:50:31;;;;;;;1999.90;999.90;;;2.30;99.90;;;;;;5112961;28;20173;-73
2022/03/09 02:52:57;;;;;;;1999.90;999.90;;;2.20;99.90;;;;;;5112899;28;20193;-73
2022/03/09 02:55:22;;;;;;;1999.90;999.90;;;2.10;99.90;;;;;;5112483;28;20189;-74
2022/03/09 02:57:48;;;;;;;1999.90;999.90;;;2.10;99.90;;;;;;5114080;28;20234;-75
2022/03/09 03:00:14;;;;;;;1999.90;999.90;;;2.10;99.90;;;;;;5118360;28;20193;-75
2022/03/09 03:02:40;;;;;;;1999.90;999.90;;;2.10;99.90;;;;;;5114115;28;20161;-73
2022/03/09 03:05:07;;;;;;;1999.90;999.90;;;1.90;99.90;;;;;;5112332;28;20419;-73
2022/03/09 03:07:32;;;;;;;1999.90;999.90;;;2.00;99.90;;;;;;5112746;28;20193;-73
2022/03/09 03:09:58;;;;;;;1999.90;999.90;;;1.90;99.90;;;;;;5112723;28;20198;-73
2022/03/09 03:12:24;;;;;;;1999.90;999.90;;;1.90;99.90;;;;;;5115124;28;20215;-76
2022/03/09 03:14:49;;;;;;;1999.90;999.90;;;1.90;99.90;;;;;;5117135;28;20200;-75
2022/03/09 03:17:15;;;;;;;1999.90;999.90;;;1.80;99.90;;;;;;5119035;28;20189;-74
2022/03/09 03:19:40;;;;;;;1999.90;999.90;;;1.70;99.90;;;;;;5114953;28;20169;-74
2022/03/09 03:22:06;;;;;;;1999.90;999.90;;;1.70;99.90;;;;;;5112556;28;20186;-75
2022/03/09 03:24:32;;;;;;;1999.90;999.90;;;1.70;99.90;;;;;;5111990;28;20209;-74
2022/03/09 03:26:57;;;;;;;1999.90;999.90;;;1.70;99.90;;;;;;5112544;28;20169;-74
2022/03/09 03:29:23;;;;;;;1999.90;999.90;;;1.70;99.90;;;;;;5112427;28;20436;-74
2022/03/09 03:31:49;;;;;;;1999.90;999.90;;;1.70;99.90;;;;;;5112358;28;20573;-75
2022/03/09 03:34:14;;;;;;;1999.90;999.90;;;1.70;99.90;;;;;;5112008;28;20192;-73
2022/03/09 03:36:40;;;;;;;1999.90;999.90;;;1.70;99.90;;;;;;5112332;28;20242;-73
2022/03/09 03:39:06;;;;;;;1999.90;999.90;;;1.70;99.90;;;;;;5112333;28;20688;-74
2022/03/09 03:41:31;;;;;;;1999.90;999.90;;;1.70;99.90;;;;;;5111058;28;20261;-73
2022/03/09 03:43:57;;;;;;;1999.90;999.90;;;1.60;99.90;;;;;;5112236;28;20231;-73
2022/03/09 03:46:22;;;;;;;1999.90;999.90;;;1.70;99.90;;;;;;5120707;28;20184;-76
2022/03/09 03:48:48;;;;;;;1999.90;999.90;;;1.60;99.90;;;;;;5127748;28;20165;-74
2022/03/09 03:51:14;;;;;;;1999.90;999.90;;;1.60;99.90;;;;;;5126833;28;20198;-75
2022/03/09 03:53:40;;;;;;;1999.90;999.90;;;1.60;99.90;;;;;;5112066;28;20166;-73
2022/03/09 03:56:06;;;;;;;1999.90;999.90;;;1.60;99.90;;;;;;5111910;28;20174;-74
2022/03/09 03:58:32;;;;;;;1999.90;999.90;;;1.60;99.90;;;;;;5115195;28;20443;-74
2022/03/09 04:00:58;;;;;;;1999.90;999.90;;;1.60;99.90;;;;;;5116237;28;20435;-73
2022/03/09 04:03:23;;;;;;;1999.90;999.90;;;1.70;99.90;;;;;;5116230;27;20190;-73
2022/03/09 04:05:49;;;;;;;1999.90;999.90;;;1.70;99.90;;;;;;5116973;28;20181;-76
2022/03/09 04:08:14;;;;;;;1999.90;999.90;;;1.60;99.90;;;;;;5126426;28;20177;-74
2022/03/09 04:10:40;;;;;;;1999.90;999.90;;;1.50;99.90;;;;;;5116033;28;20166;-73
2022/03/09 04:13:06;;;;;;;1999.90;999.90;;;1.30;99.90;;;;;;5116018;28;20197;-73
2022/03/09 04:15:32;;;;;;;1999.90;999.90;;;1.40;99.90;;;;;;5115527;28;20189;-73
2022/03/09 04:17:58;;;;;;;1999.90;999.90;;;1.40;99.90;;;;;;5125427;28;20189;-75
2022/03/09 04:20:24;;;;;;;1999.90;999.90;;;1.30;99.90;;;;;;5119698;28;20173;-73
2022/03/09 04:22:49;;;;;;;1999.90;999.90;;;1.20;99.90;;;;;;5115818;28;20181;-73
2022/03/09 04:25:15;;;;;;;1999.90;999.90;;;1.20;99.90;;;;;;5099402;22;20238;-75
2022/03/09 04:27:41;;;;;;;1999.90;999.90;;;1.40;99.90;;;;;;5055937;28;20243;-75
2022/03/09 04:30:08;;;;;;;1999.90;999.90;;;1.50;99.90;;;;;;5056666;28;20724;-75
2022/03/09 04:32:34;;;;;;;1999.90;999.90;;;1.50;99.90;;;;;;5056604;28;20394;-75
2022/03/09 04:35:01;;;;;;;1999.90;999.90;;;1.60;99.90;;;;;;5046549;28;20585;-75
2022/03/09 04:37:30;;;;;;;1999.90;999.90;;;1.50;99.90;;;;;;5035965;28;20208;-75
2022/03/09 04:40:00;;;;;;;1999.90;999.90;;;1.50;99.90;;;;;;5036097;28;20168;-75
2022/03/09 04:42:26;;;;;;;1999.90;999.90;;;1.40;99.90;;;;;;5036087;28;20176;-75
2022/03/09 04:44:53;;;;;;;1999.90;999.90;;;1.30;99.90;;;;;;5035860;28;20224;-75
2022/03/09 04:47:19;;;;;;;1999.90;999.90;;;1.40;99.90;;;;;;5036479;28;20203;-75
2022/03/09 04:49:45;;;;;;;1999.90;999.90;;;1.30;99.90;;;;;;5035935;28;20634;-75
2022/03/09 04:52:10;;;;;;;1999.90;999.90;;;1.40;99.90;;;;;;5035833;28;20490;-75
2022/03/09 04:54:36;;;;;;;1999.90;999.90;;;1.30;99.90;;;;;;5035715;28;20242;-75
2022/03/09 04:57:02;;;;;;;1999.90;999.90;;;1.40;99.90;;;;;;5035687;28;20239;-75
2022/03/09 04:59:27;;;;;;;1999.90;999.90;;;1.30;99.90;;;;;;5035727;28;20203;-75
2022/03/09 05:01:53;;;;;;;1999.90;999.90;;;1.20;99.90;;;;;;5035811;28;20426;-75
2022/03/09 05:04:19;;;;;;;1999.90;999.90;;;1.20;99.90;;;;;;5035328;28;20188;-75
2022/03/09 05:06:44;;;;;;;1999.90;999.90;;;1.10;99.90;;;;;;5035636;28;20200;-75
2022/03/09 05:09:10;;;;;;;1999.90;999.90;;;1.10;99.90;;;;;;5033941;28;20164;-75
2022/03/09 05:11:35;;;;;;;1999.90;999.90;;;1.00;99.90;;;;;;5034883;28;20173;-75
2022/03/09 05:14:01;;;;;;;1999.90;999.90;;;0.90;99.90;;;;;;5034378;28;20259;-73
2022/03/09 05:16:26;;;;;;;1999.90;999.90;;;0.80;99.90;;;;;;5034613;28;20172;-75
2022/03/09 05:18:52;;;;;;;1999.90;999.90;;;0.70;99.90;;;;;;5034784;28;20161;-75
2022/03/09 05:21:17;;;;;;;1999.90;999.90;;;0.80;99.90;;;;;;5035031;28;20649;-75
2022/03/09 05:23:43;;;;;;;1999.90;999.90;;;0.80;99.90;;;;;;5034642;28;20172;-75
2022/03/09 05:26:09;;;;;;;1999.90;999.90;;;0.80;99.90;;;;;;5034152;28;20204;-76
2022/03/09 05:28:34;;;;;;;1999.90;999.90;;;0.90;99.90;;;;;;5034599;28;20168;-75
2022/03/09 05:31:00;;;;;;;1999.90;999.90;;;0.90;99.90;;;;;;5034466;28;20540;-74
2022/03/09 05:33:26;;;;;;;1999.90;999.90;;;0.90;99.90;;;;;;5034483;28;20169;-75
2022/03/09 05:35:51;;;;;;;1999.90;999.90;;;0.90;99.90;;;;;;5034265;28;20197;-75
2022/03/09 05:38:17;;;;;;;1999.90;999.90;;;0.80;99.90;;;;;;5034282;28;20212;-75
2022/03/09 05:40:42;;;;;;;1999.90;999.90;;;0.80;99.90;;;;;;5034658;28;20203;-75
2022/03/09 05:43:08;;;;;;;1999.90;999.90;;;0.90;99.90;;;;;;5034180;28;20171;-75
2022/03/09 05:45:34;;;;;;;1999.90;999.90;;;0.80;99.90;;;;;;5033857;28;20263;-75
2022/03/09 05:47:59;;;;;;;1999.90;999.90;;;0.70;99.90;;;;;;5033997;28;20752;-75
2022/03/09 05:50:25;;;;;;;1999.90;999.90;;;0.80;99.90;;;;;;5033976;28;20223;-75
2022/03/09 05:52:51;;;;;;;1999.90;999.90;;;0.80;99.90;;;;;;5033760;28;20255;-75
2022/03/09 05:55:17;;;;;;;1999.90;999.90;;;0.80;99.90;;;;;;5033553;28;20192;-75
2022/03/09 05:57:42;;;;;;;1999.90;999.90;;;0.80;99.90;;;;;;5033733;28;21143;-75
2022/03/09 06:00:08;;;;;;;1999.90;999.90;;;0.90;99.90;;;;;;5033846;28;20537;-75
2022/03/09 06:02:34;;;;;;;1999.90;999.90;;;0.80;99.90;;;;;;5033838;28;20156;-75
2022/03/09 06:05:00;;;;;;;1999.90;999.90;;;0.90;99.90;;;;;;5033291;28;20276;-75
2022/03/09 06:07:25;;;;;;;1999.90;999.90;;;0.90;99.90;;;;;;5033630;28;20169;-75
2022/03/09 06:09:51;;;;;;;1999.90;999.90;;;0.80;99.90;;;;;;5033444;28;20259;-75
2022/03/09 06:12:17;;;;;;;1999.90;999.90;;;0.80;99.90;;;;;;5033346;28;20832;-75
2022/03/09 06:14:43;;;;;;;1999.90;999.90;;;0.70;99.90;;;;;;5033288;28;20665;-75
2022/03/09 06:17:09;;;;;;;1999.90;999.90;;;0.70;99.90;;;;;;5033590;28;20246;-75
2022/03/09 06:19:34;;;;;;;1999.90;999.90;;;0.70;99.90;;;;;;5033645;28;20864;-75
2022/03/09 06:22:00;;;;;;;1999.90;999.90;;;0.70;99.90;;;;;;5033553;28;20617;-75
2022/03/09 06:24:26;;;;;;;1999.90;999.90;;;0.70;99.90;;;;;;5033064;28;20214;-74
2022/03/09 06:26:53;;;;;;;1999.90;999.90;;;0.70;99.90;;;;;;5033365;28;20591;-75
2022/03/09 06:29:19;;;;;;;1999.90;999.90;;;0.70;99.90;;;;;;5033922;28;20544;-75
2022/03/09 06:31:46;;;;;;;1999.90;999.90;;;0.70;99.90;;;;;;5033908;28;20203;-75
2022/03/09 06:34:11;;;;;;;1999.90;999.90;;;0.80;99.90;;;;;;5033728;28;20195;-76
2022/03/09 06:36:42;;;;;;;1999.90;999.90;;;0.90;99.90;;;;;;5033966;28;20200;-75
2022/03/09 06:39:12;;;;;;;1999.90;999.90;;;0.90;99.90;;;;;;5033590;28;20164;-75
2022/03/09 06:41:43;;;;;;;1999.90;999.90;;;0.90;99.90;;;;;;5033571;28;20180;-75
2022/03/09 06:44:09;;;;;;;1999.90;999.90;;;1.00;99.90;;;;;;5033503;28;20558;-75
2022/03/09 06:46:34;;;;;;;1999.90;999.90;;;1.10;99.90;;;;;;5033575;28;20176;-75
2022/03/09 06:49:00;;;;;;;1999.90;999.90;;;1.20;99.90;;;;;;5033486;28;20168;-74
2022/03/09 06:51:25;;;;;;;1999.90;999.90;;;1.40;99.90;;;;;;5033595;28;20629;-75
2022/03/09 06:53:51;;;;;;;1999.90;999.90;;;1.50;99.90;;;;;;5033583;28;20627;-75
2022/03/09 06:56:18;;;;;;;1999.90;999.90;;;1.50;99.90;;;;;;5033223;28;20175;-76
2022/03/09 06:58:44;;;;;;;1999.90;999.90;;;1.60;99.90;;;;;;5033591;28;20161;-75
2022/03/09 07:01:10;;;;;;;1999.90;999.90;;;1.70;99.90;;;;;;5033515;28;20219;-75
2022/03/09 07:03:35;;;;;;;1999.90;999.90;;;1.70;99.90;;;;;;5033313;28;20411;-75
2022/03/09 07:06:01;;;;;;;1999.90;999.90;;;1.80;99.90;;;;;;5033219;28;20621;-75
2022/03/09 07:08:27;;;;;;;1999.90;999.90;;;1.80;99.90;;;;;;5033483;28;20252;-75
2022/03/09 07:10:53;;;;;;;1999.90;999.90;;;1.90;99.90;;;;;;5033618;28;20203;-76
2022/03/09 07:13:19;;;;;;;1999.90;999.90;;;2.00;99.90;;;;;;5033332;28;20576;-75
2022/03/09 07:15:44;;;;;;;1999.90;999.90;;;2.10;99.90;;;;;;5032762;28;20191;-74
2022/03/09 07:18:10;;;;;;;1999.90;999.90;;;2.20;99.90;;;;;;5032760;28;20275;-75
2022/03/09 07:20:36;;;;;;;1999.90;999.90;;;2.30;99.90;;;;;;5032919;28;20165;-75
2022/03/09 07:23:01;;;;;;;1999.90;999.90;;;2.40;99.90;;;;;;5033077;28;20238;-75
2022/03/09 07:25:27;;;;;;;1999.90;999.90;;;2.50;99.90;;;;;;5032793;28;20279;-75
2022/03/09 07:27:53;;;;;;;1999.90;999.90;;;2.70;99.90;;;;;;5033312;28;20179;-74
2022/03/09 07:30:18;;;;;;;1999.90;999.90;;;2.70;99.90;;;;;;5033173;28;20179;-75
2022/03/09 07:32:44;;;;;;;1999.90;999.90;;;2.80;99.90;;;;;;5032543;28;20179;-75
2022/03/09 07:35:10;;;;;;;1999.90;999.90;;;2.90;99.90;;;;;;5033064;28;20196;-75
2022/03/09 07:37:37;;;;;;;1999.90;999.90;;;3.00;99.90;;;;;;5033010;28;20633;-76
2022/03/09 07:40:04;;;;;;;1999.90;999.90;;;3.10;99.90;;;;;;5032923;28;20184;-75
2022/03/09 07:42:30;;;;;;;1999.90;999.90;;;3.20;99.90;;;;;;5032810;28;20561;-75
2022/03/09 07:44:55;;;;;;;1999.90;999.90;;;3.40;99.90;;;;;;5032484;28;20200;-74
2022/03/09 07:47:21;;;;;;;1999.90;999.90;;;3.50;99.90;;;;;;5014980;28;20176;-75
2022/03/09 07:49:47;;;;;;;1999.90;999.90;;;3.60;99.90;;;;;;5032385;28;20187;-76
2022/03/09 07:52:12;;;;;;;1999.90;999.90;;;3.70;99.90;;;;;;5032568;28;20279;-75
2022/03/09 07:54:38;;;;;;;1999.90;999.90;;;3.80;99.90;;;;;;5032199;28;20231;-75
2022/03/09 07:57:03;;;;;;;1999.90;999.90;;;4.00;99.90;;;;;;5031614;28;20200;-75
2022/03/09 07:59:29;;;;;;;1999.90;999.90;;;4.10;99.90;;;;;;5031649;28;20166;-75
2022/03/09 08:01:55;;;;;;;1999.90;999.90;;;4.10;99.90;;;;;;5031532;28;20179;-75
2022/03/09 08:04:22;;;;;;;1999.90;999.90;;;4.20;99.90;;;;;;5031235;28;20193;-74
2022/03/09 08:06:49;;;;;;;1999.90;999.90;;;4.30;99.90;;;;;;5031394;28;20187;-74
2022/03/09 08:09:15;;;;;;;1999.90;999.90;;;4.40;99.90;;;;;;5031643;28;20899;-74
2022/03/09 08:11:41;;;;;;;1999.90;999.90;;;4.60;99.90;;;;;;5031560;28;20419;-74
2022/03/09 08:14:07;;;;;;;1999.90;999.90;;;4.70;99.90;;;;;;5031132;28;20231;-74
2022/03/09 08:16:32;;;;;;;1999.90;999.90;;;4.80;99.90;;;;;;5031470;28;20407;-74
2022/03/09 08:18:58;;;;;;;1999.90;999.90;;;4.90;99.90;;;;;;5031511;28;20211;-74
2022/03/09 08:21:23;;;;;;;1999.90;999.90;;;5.00;99.90;;;;;;5031538;28;20177;-74
2022/03/09 08:23:49;;;;;;;1999.90;999.90;;;5.10;99.90;;;;;;5031448;28;20176;-75
2022/03/09 08:26:15;;;;;;;1999.90;999.90;;;5.10;99.90;;;;;;5031040;28;20204;-74
2022/03/09 08:28:41;;;;;;;1999.90;999.90;;;5.20;99.90;;;;;;5031482;28;20195;-74
2022/03/09 08:31:07;;;;;;;1999.90;999.90;;;5.30;99.90;;;;;;5031436;28;20450;-74
2022/03/09 08:33:33;;;;;;;1999.90;999.90;;;5.30;99.90;;;;;;5031389;28;20963;-74
2022/03/09 08:35:59;;;;;;;1999.90;999.90;;;5.60;99.90;;;;;;5030971;28;20453;-74
2022/03/09 08:38:25;;;;;;;1999.90;999.90;;;5.60;99.90;;;;;;5031275;28;20208;-74
2022/03/09 08:40:51;;;;;;;1999.90;999.90;;;6.00;99.90;;;;;;5031282;28;20513;-74
2022/03/09 08:43:17;;;;;;;1999.90;999.90;;;5.80;99.90;;;;;;5028970;28;20204;-74
2022/03/09 08:45:44;;;;;;;1999.90;999.90;;;6.00;99.90;;;;;;5032111;28;20419;-74
2022/03/09 08:48:10;;;;;;;1999.90;999.90;;;6.10;99.90;;;;;;5036048;28;20421;-74
2022/03/09 08:50:36;;;;;;;1999.90;999.90;;;6.20;99.90;;;;;;5035682;28;20775;-74
2022/03/09 08:53:01;;;;;;;1999.90;999.90;;;6.30;99.90;;;;;;5036264;28;20293;-74
2022/03/09 08:55:27;;;;;;;1999.90;999.90;;;6.40;99.90;;;;;;5035992;28;20207;-74
2022/03/09 08:57:53;;;;;;;1999.90;999.90;;;6.50;99.90;;;;;;5017635;28;20242;-74
2022/03/09 09:00:18;;;;;;;1999.90;999.90;;;6.60;99.90;;;;;;5035674;28;20199;-74
2022/03/09 09:02:45;;;;;;;1999.90;999.90;;;6.70;99.90;;;;;;5036151;28;20251;-74
2022/03/09 09:05:10;;;;;;;1999.90;999.90;;;6.80;99.90;;;;;;5035482;28;20199;-74
2022/03/09 09:07:36;;;;;;;1999.90;999.90;;;6.80;99.90;;;;;;5035158;28;20586;-74
2022/03/09 09:10:03;;;;;;;1999.90;999.90;;;7.00;99.90;;;;;;5036174;28;20419;-74
2022/03/09 09:12:30;;;;;;;1999.90;999.90;;;7.10;99.40;;;;;;5036121;28;20176;-74
2022/03/09 09:14:56;;;;;;;1999.90;999.90;;;7.30;97.60;;;;;;5035777;28;20427;-74
2022/03/09 09:17:21;;;;;;;1999.90;999.90;;;7.40;97.70;;;;;;5036214;28;20451;-74
2022/03/09 09:19:47;;;;;;;1999.90;999.90;;;7.50;96.50;;;;;;5036583;28;21023;-74
2022/03/09 09:22:12;;;;;;;1999.90;999.90;;;7.70;96.90;;;;;;5036357;28;20175;-74
2022/03/09 09:24:38;;;;;;;1999.90;999.90;;;7.80;95.50;;;;;;5036256;28;20208;-74
2022/03/09 09:27:04;;;;;;;1999.90;999.90;;;7.90;91.50;;;;;;5037002;28;20177;-75
2022/03/09 09:29:29;;;;;;;1999.90;999.90;;;8.00;92.00;;;;;;5038152;28;20164;-74
2022/03/09 09:31:55;;;;;;;1999.90;999.90;;;8.20;90.80;;;;;;5038394;28;20177;-74
2022/03/09 09:34:21;;;;;;;1999.90;999.90;;;8.20;84.60;;;;;;5037826;28;20196;-74
2022/03/09 09:36:47;;;;;;;1999.90;999.90;;;8.40;81.40;;;;;;5036986;28;20455;-74
2022/03/09 09:39:14;;;;;;;1999.90;999.90;;;8.50;81.90;;;;;;5035699;28;20179;-74
2022/03/09 09:41:46;;;;;;;1999.90;999.90;;;8.50;77.10;;;;;;5034716;28;20411;-74
2022/03/09 09:44:12;;;;;;;1999.90;999.90;;;8.40;77.10;;;;;;5034252;28;20420;-74
2022/03/09 09:46:39;;;;;;;1999.90;999.90;;;8.50;76.90;;;;;;5035843;28;20968;-74
2022/03/09 09:49:08;;;;;;;1999.90;999.90;;;8.60;76.30;;;;;;5036309;28;20417;-74
2022/03/09 09:51:37;;;;;;;1999.90;999.90;;;8.70;80.80;;;;;;5034905;28;20410;-74
2022/03/09 09:54:03;;;;;;;1999.90;999.90;;;9.00;77.90;;;;;;5035197;28;20415;-74
2022/03/09 09:56:30;;;;;;;1999.90;999.90;;;9.10;73.40;;;;;;5034100;28;20395;-74
2022/03/09 09:58:56;;;;;;;1999.90;999.90;;;9.10;70.60;;;;;;5035421;28;20412;-74
2022/03/09 10:01:22;;;;;;;1999.90;999.90;;;9.00;71.20;;;;;;5035169;28;20442;-74
2022/03/09 10:03:47;;;;;;;1999.90;999.90;;;9.20;70.60;;;;;;5035496;28;20417;-74
2022/03/09 10:06:13;;;;;;;1999.90;999.90;;;9.30;71.10;;;;;;5034366;28;20194;-74
2022/03/09 10:08:39;;;;;;;1999.90;999.90;;;9.40;73.40;;;;;;5035613;28;20188;-74
2022/03/09 10:11:05;;;;;;;1999.90;999.90;;;9.50;71.20;;;;;;5035456;28;20703;-74
2022/03/09 10:13:38;;;;;;;1999.90;999.90;;;9.70;74.90;;;;;;5034526;28;20441;-74
2022/03/09 10:16:20;;;;;;;1999.90;999.90;;;9.80;67.80;;;;;;5035016;28;20814;-74
2022/03/09 10:18:54;;;;;;;1999.90;999.90;;;9.80;68.90;;;;;;5031678;28;20542;-74
2022/03/09 10:21:35;;;;;;;1999.90;999.90;;;10.00;66.20;;;;;;5031701;28;20435;-74
2022/03/09 10:24:09;;;;;;;1999.90;999.90;;;10.10;64.90;;;;;;5031573;28;20416;-74
2022/03/09 10:26:34;;;;;;;1999.90;999.90;;;10.10;61.90;;;;;;5038530;28;20784;-75
2022/03/09 10:29:09;;;;;;;1999.90;999.90;;;10.20;70.60;;;;;;5038192;28;20417;-75
2022/03/09 10:31:50;;;;;;;1999.90;999.90;;;10.50;67.80;;;;;;5036987;28;20613;-75
2022/03/09 10:34:22;;;;;;;1999.90;999.90;;;10.60;64.50;;;;;;5038012;28;20437;-73
2022/03/09 10:36:58;;;;;;;1999.90;999.90;;;10.70;66.00;;;;;;5039470;28;20454;-74
2022/03/09 10:39:30;;;;;;;1999.90;999.90;;;10.90;65.30;;;;;;5036648;28;20784;-73
2022/03/09 10:41:58;;;;;;;1999.90;999.90;;;11.10;64.90;;;;;;5035539;28;20967;-75
2022/03/09 10:44:45;;;;;;;1999.90;999.90;;;11.20;58.50;;;;;;5033171;28;20430;-75
2022/03/09 10:47:27;;;;;;;1999.90;999.90;;;11.20;58.10;;;;;;5033253;28;20424;-74
2022/03/09 10:49:52;;;;;;;1999.90;999.90;;;11.30;59.60;;;;;;5032804;28;20428;-74
2022/03/09 10:52:18;;;;;;;1999.90;999.90;;;11.50;59.00;;;;;;5033822;28;20417;-75
2022/03/09 10:54:43;;;;;;;1999.90;999.90;;;11.60;55.20;;;;;;5035529;28;20188;-75
2022/03/09 10:57:12;;;;;;;1999.90;999.90;;;11.60;53.80;;;;;;5034688;28;20203;-75
2022/03/09 10:59:52;;;;;;;1999.90;999.90;;;11.60;55.80;;;;;;5036186;28;20218;-75
2022/03/09 11:02:20;;;;;;;1999.90;999.90;;;11.70;53.90;;;;;;5035963;28;20399;-75
2022/03/09 11:05:14;;;;;;;1999.90;999.90;;;11.80;54.60;;;;;;5032334;28;20431;-74
2022/03/09 11:07:41;;;;;;;1999.90;999.90;;;12.00;57.80;;;;;;5030546;28;20402;-74
2022/03/09 11:10:08;;;;;;;1999.90;999.90;;;12.30;52.40;;;;;;5031703;28;20406;-74
2022/03/09 11:12:35;;;;;;;1999.90;999.90;;;12.30;47.70;;;;;;5031259;28;20405;-74
2022/03/09 11:15:01;;;;;;;1999.90;999.90;;;12.30;50.80;;;;;;5031031;28;20430;-74
2022/03/09 11:17:27;;;;;;;1999.90;999.90;;;12.30;49.60;;;;;;5031061;28;20478;-74
2022/03/09 11:19:54;;;;;;;1999.90;999.90;;;12.40;50.80;;;;;;5030547;28;20494;-74
2022/03/09 11:22:19;;;;;;;1999.90;999.90;;;12.40;45.60;;;;;;5031075;28;20414;-75
2022/03/09 11:24:45;;;;;;;1999.90;999.90;;;12.40;50.00;;;;;;5030026;28;20442;-74
2022/03/09 11:27:13;;;;;;;1999.90;999.90;;;12.60;50.10;;;;;;5030545;28;20255;-74
2022/03/09 11:29:40;;;;;;;1999.90;999.90;;;12.70;48.10;;;;;;5031263;28;20769;-74
2022/03/09 11:32:07;;;;;;;1999.90;999.90;;;12.90;45.80;;;;;;5030839;28;20418;-74
2022/03/09 11:34:38;;;;;;;1999.90;999.90;;;13.00;44.20;;;;;;5030267;28;20427;-74
2022/03/09 11:37:33;;;;;;;1999.90;999.90;;;13.10;43.90;;;;;;5031162;28;20451;-75
2022/03/09 11:40:10;;;;;;;1999.90;999.90;;;13.10;45.20;;;;;;5031482;28;20402;-75
2022/03/09 11:42:44;;;;;;;1999.90;999.90;;;13.20;41.80;;;;;;5030805;28;20387;-74
2022/03/09 11:45:20;;;;;;;1999.90;999.90;;;13.20;42.40;;;;;;5030548;28;20430;-74
2022/03/09 11:47:58;;;;;;;1999.90;999.90;;;13.40;41.30;;;;;;5031072;28;20403;-74
2022/03/09 11:50:25;;;;;;;1999.90;999.90;;;14.10;40.50;;;;;;5030773;28;20417;-74
2022/03/09 11:53:01;;;;;;;1999.90;999.90;;;14.60;37.90;;;;;;5030530;28;20407;-73
2022/03/09 11:55:27;;;;;;;1999.90;999.90;;;15.10;36.70;;;;;;5030734;28;20428;-74
2022/03/09 11:57:56;;;;;;;1999.90;999.90;;;15.60;33.10;;;;;;5030543;28;20458;-73
2022/03/09 12:00:22;;;;;;;1999.90;999.90;;;16.20;30.30;;;;;;5031220;28;20408;-73
2022/03/09 12:02:56;;;;;;;1999.90;999.90;;;16.50;30.80;;;;;;5031193;28;20433;-74
2022/03/09 12:05:25;;;;;;;1999.90;999.90;;;17.00;28.20;;;;;;5030181;28;20431;-74
2022/03/09 12:07:52;;;;;;;1999.90;999.90;;;17.50;27.30;;;;;;5030897;28;20774;-75